createdAt,value
2023-02-15T00:01:24.417Z,101441.69
2023-02-15T00:03:53.140Z,101429.38
2023-02-15T00:06:21.496Z,101431.16
2023-02-15T00:08:51.750Z,101436.31
2023-02-15T00:11:41.089Z,101423.69
2023-02-15T00:14:11.504Z,101428.66
2023-02-15T00:16:42.789Z,101433.63
2023-02-15T00:19:12.593Z,101424.41
2023-02-15T00:21:42.385Z,101427.22
2023-02-15T00:24:14.422Z,101429.28
2023-02-15T00:26:43.954Z,101413.81
2023-02-15T00:29:14.590Z,101407.19
2023-02-15T00:31:44.732Z,101398.28
2023-02-15T00:34:14.689Z,101385.75
2023-02-15T00:36:43.683Z,101384.22
2023-02-15T00:39:16.104Z,101365.78
2023-02-15T00:41:45.018Z,101374.81
2023-02-15T00:44:14.409Z,101375.94
2023-02-15T00:46:43.631Z,101373.22
2023-02-15T00:49:12.973Z,101373.28
2023-02-15T00:51:42.826Z,101351.19
2023-02-15T00:54:11.393Z,101358.44
2023-02-15T00:56:41.439Z,101349.19
2023-02-15T00:59:11.694Z,101348.53
2023-02-15T01:01:40.348Z,101338.91
2023-02-15T01:04:08.980Z,101351.91
2023-02-15T01:06:37.683Z,101348.81
2023-02-15T01:09:06.239Z,101331.38
2023-02-15T01:11:35.128Z,101330.72
2023-02-15T01:14:06.525Z,101328.16
2023-02-15T01:16:35.244Z,101317.31
2023-02-15T01:19:05.194Z,101317.41
2023-02-15T01:21:35.555Z,101310.72
2023-02-15T01:24:04.229Z,101308.81
2023-02-15T01:26:32.830Z,101301.13
2023-02-15T01:29:01.349Z,101291.81
2023-02-15T01:31:32.480Z,101289.16
2023-02-15T01:34:01.143Z,101280.19
2023-02-15T01:36:29.692Z,101287.19
2023-02-15T01:38:58.177Z,101276.53
2023-02-15T01:41:27.860Z,101268.44
2023-02-15T01:43:58.616Z,101259.78
2023-02-15T01:46:36.066Z,101249.19
2023-02-15T01:49:11.695Z,101246.38
2023-02-15T01:51:42.491Z,101235.28
2023-02-15T01:54:17.796Z,101234.72
2023-02-15T01:56:46.494Z,101218.81
2023-02-15T01:59:22.291Z,101218.22
2023-02-15T02:01:55.049Z,101218.09
2023-02-15T02:04:33.358Z,101214.91
2023-02-15T02:07:02.588Z,101215.41
2023-02-15T02:09:32.652Z,101205.56
2023-02-15T02:12:02.480Z,101189.22
2023-02-15T02:14:31.916Z,101198.16
2023-02-15T02:17:13.335Z,101193.44
2023-02-15T02:20:22.096Z,101191.44
2023-02-15T02:23:15.472Z,101187.97
2023-02-15T02:26:29.284Z,101188.72
2023-02-15T02:29:32.295Z,101186.16
2023-02-15T02:32:31.106Z,101173.88
2023-02-15T02:35:09.101Z,101173.25
2023-02-15T02:37:48.489Z,101164.97
2023-02-15T02:40:25.981Z,101166.84
2023-02-15T02:43:02.821Z,101164.19
2023-02-15T02:45:36.676Z,101166.28
2023-02-15T02:48:10.884Z,101167.50
2023-02-15T02:50:43.602Z,101163.72
2023-02-15T02:53:13.032Z,101158.56
2023-02-15T02:55:47.728Z,101162.34
2023-02-15T02:58:22.204Z,101141.19
2023-02-15T03:00:56.914Z,101149.50
2023-02-15T03:03:30.741Z,101150.00
2023-02-15T03:06:12.139Z,101148.50
2023-02-15T03:08:47.484Z,101136.81
2023-02-15T03:11:16.314Z,101130.41
2023-02-15T03:13:48.436Z,101131.97
2023-02-15T03:16:29.839Z,101113.88
2023-02-15T03:19:03.469Z,101117.66
2023-02-15T03:21:43.199Z,101104.69
2023-02-15T03:24:16.501Z,101095.81
2023-02-15T03:26:48.625Z,101100.63
2023-02-15T03:29:19.863Z,101093.47
2023-02-15T03:31:52.947Z,101088.50
2023-02-15T03:34:22.264Z,101086.59
2023-02-15T03:36:58.855Z,101079.81
2023-02-15T03:39:33.490Z,101071.53
2023-02-15T03:42:11.802Z,101063.03
2023-02-15T03:44:49.367Z,101065.91
2023-02-15T03:47:22.057Z,101064.44
2023-02-15T03:50:03.356Z,101060.00
2023-02-15T03:52:34.717Z,101068.34
2023-02-15T03:55:03.323Z,101063.84
2023-02-15T03:57:49.115Z,101063.06
2023-02-15T04:00:39.042Z,101074.34
2023-02-15T04:03:15.023Z,101075.09
2023-02-15T04:05:45.306Z,101082.50
2023-02-15T04:08:15.825Z,101081.84
2023-02-15T04:10:57.268Z,101089.22
2023-02-15T04:13:32.391Z,101086.78
2023-02-15T04:16:07.551Z,101077.94
2023-02-15T04:18:55.905Z,101085.84
2023-02-15T04:21:43.483Z,101084.28
2023-02-15T04:24:31.918Z,101057.72
2023-02-15T04:27:00.906Z,101060.44
2023-02-15T04:29:31.281Z,101072.16
2023-02-15T04:32:03.082Z,101073.00
2023-02-15T04:34:31.917Z,101062.38
2023-02-15T04:37:00.377Z,101057.38
2023-02-15T04:39:30.343Z,101048.88
2023-02-15T04:42:00.580Z,101051.50
2023-02-15T04:44:29.134Z,101053.06
2023-02-15T04:46:57.820Z,101040.84
2023-02-15T04:49:26.458Z,101038.31
2023-02-15T04:51:54.916Z,101038.19
2023-02-15T04:54:23.505Z,101025.97
2023-02-15T04:56:53.760Z,101023.72
2023-02-15T04:59:22.314Z,101013.16
2023-02-15T05:01:51.337Z,101016.56
2023-02-15T05:04:19.765Z,101001.91
2023-02-15T05:06:49.360Z,101022.16
2023-02-15T05:09:18.362Z,101097.19
2023-02-15T05:11:46.903Z,101162.53
2023-02-15T05:14:17.119Z,101177.03
2023-02-15T05:16:45.674Z,101174.78
2023-02-15T05:19:14.419Z,101193.59
2023-02-15T05:21:42.933Z,101194.59
2023-02-15T05:24:25.137Z,101211.22
2023-02-15T05:27:10.974Z,101220.13
2023-02-15T05:29:41.089Z,101226.38
2023-02-15T05:32:10.205Z,101234.03
2023-02-15T05:34:38.785Z,101255.78
2023-02-15T05:37:08.761Z,101265.66
2023-02-15T05:39:37.668Z,101258.72
2023-02-15T05:42:06.605Z,101257.09
2023-02-15T05:44:35.207Z,101245.84
2023-02-15T05:47:05.785Z,101244.97
2023-02-15T05:49:34.367Z,101250.75
2023-02-15T05:52:03.028Z,101250.06
2023-02-15T05:54:31.487Z,101247.59
2023-02-15T05:57:00.254Z,101258.88
2023-02-15T05:59:28.855Z,101264.94
2023-02-15T06:01:57.428Z,101273.44
2023-02-15T06:04:27.767Z,101285.94
2023-02-15T06:06:56.456Z,101283.53
2023-02-15T06:09:25.210Z,101275.59
2023-02-15T06:11:53.928Z,101280.84
2023-02-15T06:14:22.554Z,101304.53
2023-02-15T06:16:51.206Z,101311.06
2023-02-15T06:19:20.319Z,101304.88
2023-02-15T06:21:50.630Z,101308.88
2023-02-15T06:24:19.208Z,101304.66
2023-02-15T06:26:47.710Z,101318.84
2023-02-15T06:29:16.789Z,101305.84
2023-02-15T06:31:45.508Z,101302.31
2023-02-15T06:34:14.456Z,101308.56
2023-02-15T06:36:44.536Z,101324.47
2023-02-15T06:39:15.102Z,101325.41
2023-02-15T06:41:43.735Z,101322.69
2023-02-15T06:44:19.348Z,101309.69
2023-02-15T06:46:48.286Z,101310.44
2023-02-15T06:49:17.007Z,101326.91
2023-02-15T06:51:45.638Z,101336.03
2023-02-15T06:54:15.855Z,101328.25
2023-02-15T06:56:44.761Z,101336.94
2023-02-15T06:59:14.342Z,101336.44
2023-02-15T07:01:42.979Z,101335.59
2023-02-15T07:04:12.639Z,101332.81
2023-02-15T07:06:41.687Z,101328.47
2023-02-15T07:09:10.211Z,101331.94
2023-02-15T07:11:57.650Z,101332.81
2023-02-15T07:14:28.742Z,101328.47
2023-02-15T07:16:57.802Z,101337.09
2023-02-15T07:19:26.444Z,101334.75
2023-02-15T07:21:55.417Z,101322.72
2023-02-15T07:24:24.123Z,101321.69
2023-02-15T07:26:54.744Z,101314.97
2023-02-15T07:29:24.339Z,101308.81
2023-02-15T07:31:52.856Z,101307.03
2023-02-15T07:34:21.863Z,101300.06
2023-02-15T07:36:53.061Z,101288.91
2023-02-15T07:39:21.765Z,101282.81
2023-02-15T07:41:51.483Z,101273.38
2023-02-15T07:44:21.977Z,101271.66
2023-02-15T07:46:51.162Z,101274.28
2023-02-15T07:49:19.720Z,101274.41
2023-02-15T07:51:48.292Z,101279.78
2023-02-15T07:54:16.823Z,101268.53
2023-02-15T07:56:47.445Z,101260.88
2023-02-15T07:59:16.216Z,101267.59
2023-02-15T08:01:46.556Z,101271.88
2023-02-15T08:04:15.100Z,101280.50
2023-02-15T08:06:43.822Z,101277.16
2023-02-15T08:09:16.976Z,101285.09
2023-02-15T08:11:46.026Z,101286.56
2023-02-15T08:14:16.785Z,101287.50
2023-02-15T08:16:48.160Z,101290.00
2023-02-15T08:19:18.666Z,101295.22
2023-02-15T08:21:48.790Z,101307.25
2023-02-15T08:24:19.830Z,101312.34
2023-02-15T08:26:49.116Z,101308.81
2023-02-15T08:29:19.370Z,101307.13
2023-02-15T08:31:49.580Z,101316.63
2023-02-15T08:34:20.599Z,101313.78
2023-02-15T08:36:52.948Z,101315.47
2023-02-15T08:39:22.060Z,101309.22
2023-02-15T08:41:51.861Z,101320.44
2023-02-15T08:44:22.032Z,101315.91
2023-02-15T08:46:53.315Z,101313.34
2023-02-15T08:49:24.391Z,101315.91
2023-02-15T08:51:53.058Z,101307.28
2023-02-15T08:54:23.296Z,101308.25
2023-02-15T08:56:52.047Z,101315.19
2023-02-15T08:59:22.942Z,101320.38
2023-02-15T09:01:54.358Z,101332.47
2023-02-15T09:04:24.008Z,101325.53
2023-02-15T09:06:53.979Z,101325.25
2023-02-15T09:09:24.388Z,101329.38
2023-02-15T09:11:59.408Z,101335.09
2023-02-15T09:14:29.073Z,101342.00
2023-02-15T09:16:59.053Z,101330.91
2023-02-15T09:19:27.822Z,101341.25
2023-02-15T09:21:56.269Z,101338.19
2023-02-15T09:24:26.030Z,101329.16
2023-02-15T09:26:54.923Z,101319.28
2023-02-15T09:29:24.096Z,101318.78
2023-02-15T09:31:54.915Z,101317.38
2023-02-15T09:34:25.934Z,101316.78
2023-02-15T09:36:54.704Z,101304.97
2023-02-15T09:39:24.923Z,101309.41
2023-02-15T09:42:24.593Z,101327.41
2023-02-15T09:45:18.467Z,101310.22
2023-02-15T09:48:16.766Z,101308.97
2023-02-15T09:50:57.811Z,101305.94
2023-02-15T09:53:38.071Z,101305.53
2023-02-15T09:56:13.934Z,101304.19
2023-02-15T09:58:55.706Z,101308.63
2023-02-15T10:01:33.783Z,101307.59
2023-02-15T10:04:26.289Z,101309.13
2023-02-15T10:07:10.111Z,101303.59
2023-02-15T10:09:55.696Z,101310.94
2023-02-15T10:12:44.138Z,101309.13
2023-02-15T10:15:42.743Z,101317.19
2023-02-15T10:18:28.329Z,101316.88
2023-02-15T10:21:07.251Z,101308.84
2023-02-15T10:24:04.114Z,101319.19
2023-02-15T10:26:43.813Z,101308.41
2023-02-15T10:29:21.138Z,101302.34
2023-02-15T10:31:54.216Z,101301.63
2023-02-15T10:34:30.384Z,101300.59
2023-02-15T10:37:32.783Z,101307.47
2023-02-15T10:40:10.988Z,101310.72
2023-02-15T10:42:52.324Z,101294.91
2023-02-15T10:45:29.912Z,101297.22
2023-02-15T10:48:36.523Z,101297.84
2023-02-15T10:51:09.815Z,101297.28
2023-02-15T10:54:15.449Z,101300.88
2023-02-15T10:56:57.474Z,101292.38
2023-02-15T10:59:43.348Z,101299.28
2023-02-15T11:02:21.338Z,101303.66
2023-02-15T11:05:05.579Z,101308.19
2023-02-15T11:07:40.817Z,101316.72
2023-02-15T11:10:29.177Z,101312.19
2023-02-15T11:13:00.762Z,101311.94
2023-02-15T11:15:34.195Z,101311.25
2023-02-15T11:18:09.226Z,101312.09
2023-02-15T11:20:45.358Z,101330.63
2023-02-15T11:23:19.622Z,101306.78
2023-02-15T11:25:55.385Z,101320.47
2023-02-15T11:28:32.815Z,101327.91
2023-02-15T11:31:14.037Z,101328.94
2023-02-15T11:33:47.415Z,101326.41
2023-02-15T11:36:22.643Z,101321.78
2023-02-15T11:38:59.374Z,101323.16
2023-02-15T11:41:32.492Z,101332.06
2023-02-15T11:44:10.966Z,101337.25
2023-02-15T11:46:39.869Z,101333.31
2023-02-15T11:49:23.908Z,101327.03
2023-02-15T11:51:53.242Z,101324.13
2023-02-15T11:54:26.521Z,101331.66
2023-02-15T11:56:55.380Z,101342.88
2023-02-15T11:59:32.645Z,101339.13
2023-02-15T12:02:01.582Z,101347.97
2023-02-15T12:04:36.070Z,101349.94
2023-02-15T12:07:12.901Z,101349.56
2023-02-15T12:09:50.731Z,101341.75
2023-02-15T12:12:27.345Z,101335.94
2023-02-15T12:14:58.754Z,101331.34
2023-02-15T12:17:30.190Z,101334.41
2023-02-15T12:20:00.607Z,101339.59
2023-02-15T12:22:32.746Z,101330.53
2023-02-15T12:25:04.190Z,101324.03
2023-02-15T12:27:35.452Z,101317.75
2023-02-15T12:30:09.848Z,101325.56
2023-02-15T12:32:49.804Z,101323.88
2023-02-15T12:35:29.195Z,101325.28
2023-02-15T12:37:59.601Z,101322.81
2023-02-15T12:40:31.582Z,101324.63
2023-02-15T12:43:00.733Z,101322.81
2023-02-15T12:45:32.083Z,101321.13
2023-02-15T12:48:17.288Z,101323.44
2023-02-15T12:50:47.139Z,101322.56
2023-02-15T12:53:20.741Z,101319.06
2023-02-15T12:55:54.347Z,101310.59
2023-02-15T12:58:26.798Z,101311.66
2023-02-15T13:01:14.151Z,101291.88
2023-02-15T13:04:00.810Z,101307.94
2023-02-15T13:06:31.578Z,101312.19
2023-02-15T13:09:08.054Z,101297.53
2023-02-15T13:11:38.740Z,101308.38
2023-02-15T13:14:21.223Z,101292.56
2023-02-15T13:16:54.646Z,101294.91
2023-02-15T13:19:36.156Z,101285.13
2023-02-15T13:22:09.226Z,101315.16
2023-02-15T13:24:41.560Z,101286.72
2023-02-15T13:27:16.225Z,101274.47
2023-02-15T13:29:49.247Z,101296.31
2023-02-15T13:32:28.992Z,101286.69
2023-02-15T13:35:00.287Z,101293.09
2023-02-15T13:37:48.197Z,101302.44
2023-02-15T13:40:24.889Z,101283.28
2023-02-15T13:42:59.702Z,101280.75
2023-02-15T13:45:43.666Z,101281.03
2023-02-15T13:48:22.674Z,101272.63
2023-02-15T13:51:06.536Z,101270.94
2023-02-15T13:53:59.981Z,101272.63
2023-02-15T13:56:43.527Z,101263.78
2023-02-15T13:59:35.012Z,101282.13
2023-02-15T14:02:27.078Z,101256.41
2023-02-15T14:05:16.073Z,101251.16
2023-02-15T14:08:00.255Z,101248.03
2023-02-15T14:10:40.400Z,101250.19
2023-02-15T14:13:45.678Z,101253.97
2023-02-15T14:16:23.431Z,101247.00
2023-02-15T14:18:57.824Z,101254.09
2023-02-15T14:21:34.264Z,101251.53
2023-02-15T14:24:18.635Z,101215.84
2023-02-15T14:26:52.596Z,101231.56
2023-02-15T14:29:31.400Z,101237.59
2023-02-15T14:32:13.805Z,101229.56
2023-02-15T14:34:51.013Z,101234.53
2023-02-15T14:37:33.570Z,101245.81
2023-02-15T14:40:26.218Z,101250.13
2023-02-15T14:42:59.621Z,101228.34
2023-02-15T14:45:35.088Z,101242.81
2023-02-15T14:48:12.417Z,101241.66
2023-02-15T14:50:45.109Z,101231.72
2023-02-15T14:53:41.033Z,101234.66
2023-02-15T14:56:24.169Z,101237.13
2023-02-15T14:59:17.369Z,101229.63
2023-02-15T15:02:00.202Z,101240.28
2023-02-15T15:04:35.781Z,101234.00
2023-02-15T15:07:15.329Z,101233.47
2023-02-15T15:09:46.431Z,101231.66
2023-02-15T15:12:40.804Z,101238.63
2023-02-15T15:15:13.922Z,101228.47
2023-02-15T15:18:00.383Z,101224.53
2023-02-15T15:20:51.204Z,101233.03
2023-02-15T15:23:42.810Z,101224.84
2023-02-15T15:26:34.596Z,101227.78
2023-02-15T15:29:05.665Z,101219.13
2023-02-15T15:31:46.614Z,101208.56
2023-02-15T15:35:02.629Z,101216.50
2023-02-15T15:38:07.676Z,101214.56
2023-02-15T15:41:17.223Z,101206.34
2023-02-15T15:44:50.251Z,101208.41
2023-02-15T15:47:53.445Z,101202.81
2023-02-15T15:50:27.504Z,101208.56
2023-02-15T15:53:00.872Z,101210.38
2023-02-15T15:55:32.994Z,101216.19
2023-02-15T15:58:04.613Z,101202.41
2023-02-15T16:00:39.519Z,101198.25
2023-02-15T16:03:07.975Z,101187.28
2023-02-15T16:05:40.788Z,101182.47
2023-02-15T16:08:09.113Z,101178.16
2023-02-15T16:10:39.212Z,101167.28
2023-02-15T16:13:09.028Z,101171.81
2023-02-15T16:15:50.737Z,101164.44
2023-02-15T16:18:21.751Z,101165.88
2023-02-15T16:20:55.514Z,101165.31
2023-02-15T16:23:52.935Z,101159.88
2023-02-15T16:26:40.646Z,101154.25
2023-02-15T16:29:18.446Z,101157.59
2023-02-15T16:32:03.983Z,101153.06
2023-02-15T16:34:33.904Z,101160.00
2023-02-15T16:37:19.957Z,101150.13
2023-02-15T16:39:49.563Z,101154.31
2023-02-15T16:42:19.193Z,101142.09
2023-02-15T16:44:50.868Z,101147.66
2023-02-15T16:47:24.958Z,101153.47
2023-02-15T16:49:57.046Z,101158.19
2023-02-15T16:52:28.109Z,101160.06
2023-02-15T16:55:00.149Z,101156.69
2023-02-15T16:57:32.684Z,101155.75
2023-02-15T17:00:06.436Z,101156.88
2023-02-15T17:02:55.155Z,101165.84
2023-02-15T17:05:25.791Z,101156.44
2023-02-15T17:08:08.886Z,101146.59
2023-02-15T17:10:40.484Z,101150.44
2023-02-15T17:13:13.946Z,101134.63
2023-02-15T17:15:44.590Z,101143.66
2023-02-15T17:18:19.521Z,101147.44
2023-02-15T17:20:49.888Z,101123.63
2023-02-15T17:23:27.572Z,101146.69
2023-02-15T17:25:56.719Z,101133.41
2023-02-15T17:28:27.762Z,101137.84
2023-02-15T17:30:58.205Z,101132.97
2023-02-15T17:33:38.373Z,101138.34
2023-02-15T17:36:12.887Z,101139.06
2023-02-15T17:38:43.830Z,101129.88
2023-02-15T17:41:12.407Z,101139.06
2023-02-15T17:43:42.698Z,101135.31
2023-02-15T17:46:12.098Z,101142.47
2023-02-15T17:48:43.918Z,101136.25
2023-02-15T17:51:15.567Z,101155.66
2023-02-15T17:54:05.253Z,101142.38
2023-02-15T17:56:32.764Z,101144.72
2023-02-15T17:59:01.327Z,101142.47
2023-02-15T18:01:47.261Z,101143.88
2023-02-15T18:04:35.077Z,101137.84
2023-02-15T18:07:20.570Z,101139.84
2023-02-15T18:10:06.737Z,101136.16
2023-02-15T18:12:39.140Z,101145.84
2023-02-15T18:15:12.605Z,101140.47
2023-02-15T18:17:44.447Z,101134.00
2023-02-15T18:20:24.827Z,101125.31
2023-02-15T18:22:54.586Z,101127.28
2023-02-15T18:25:25.865Z,101127.28
2023-02-15T18:27:55.371Z,101129.63
2023-02-15T18:30:27.038Z,101126.38
2023-02-15T18:32:58.073Z,101140.03
2023-02-15T18:35:31.499Z,101130.59
2023-02-15T18:38:01.992Z,101134.28
2023-02-15T18:40:30.784Z,101136.34
2023-02-15T18:42:59.227Z,101134.47
2023-02-15T18:45:33.161Z,101135.59
2023-02-15T18:48:01.996Z,101138.81
2023-02-15T18:50:36.028Z,101139.38
2023-02-15T18:53:06.164Z,101134.22
2023-02-15T18:55:36.980Z,101137.84
2023-02-15T18:58:05.833Z,101139.47
2023-02-15T19:00:36.718Z,101137.41
2023-02-15T19:03:05.614Z,101140.50
2023-02-15T19:05:35.619Z,101138.69
2023-02-15T19:08:05.080Z,101134.22
2023-02-15T19:10:34.654Z,101152.44
2023-02-15T19:13:03.423Z,101134.22
2023-02-15T19:15:32.737Z,101135.88
2023-02-15T19:18:01.099Z,101148.69
2023-02-15T19:20:33.182Z,101146.44
2023-02-15T19:23:04.338Z,101139.75
2023-02-15T19:25:37.768Z,101147.16
2023-02-15T19:28:14.120Z,101156.69
2023-02-15T19:30:42.922Z,101145.31
2023-02-15T19:33:19.170Z,101163.44
2023-02-15T19:35:52.538Z,101150.91
2023-02-15T19:38:25.624Z,101155.72
2023-02-15T19:40:54.560Z,101145.88
2023-02-15T19:43:26.423Z,101151.97
2023-02-15T19:45:55.426Z,101150.19
2023-02-15T19:48:23.984Z,101148.66
2023-02-15T19:50:53.654Z,101149.63
2023-02-15T19:53:25.961Z,101142.38
2023-02-15T19:55:54.782Z,101139.25
2023-02-15T19:58:23.899Z,101142.84
2023-02-15T20:00:53.164Z,101149.91
2023-02-15T20:03:22.415Z,101150.84
2023-02-15T20:05:50.987Z,101136.13
2023-02-15T20:08:20.922Z,101137.94
2023-02-15T20:10:51.333Z,101128.41
2023-02-15T20:13:21.764Z,101129.00
2023-02-15T20:15:51.168Z,101131.03
2023-02-15T20:18:22.545Z,101126.72
2023-02-15T20:20:53.479Z,101124.09
2023-02-15T20:23:25.338Z,101117.22
2023-02-15T20:25:56.535Z,101122.47
2023-02-15T20:28:26.720Z,101125.03
2023-02-15T20:30:55.674Z,101126.44
2023-02-15T20:33:25.186Z,101127.66
2023-02-15T20:35:54.006Z,101111.59
2023-02-15T20:38:25.671Z,101116.09
2023-02-15T20:41:15.102Z,101109.25
2023-02-15T20:43:43.994Z,101110.94
2023-02-15T20:46:12.704Z,101112.53
2023-02-15T20:48:41.140Z,101102.09
2023-02-15T20:51:18.368Z,101101.75
2023-02-15T20:53:47.280Z,101096.47
2023-02-15T20:56:21.215Z,101091.28
2023-02-15T20:58:50.989Z,101097.41
2023-02-15T21:01:20.710Z,101097.31
2023-02-15T21:03:49.841Z,101089.25
2023-02-15T21:06:18.924Z,101090.94
2023-02-15T21:08:47.476Z,101083.38
2023-02-15T21:11:22.129Z,101071.25
2023-02-15T21:13:52.172Z,101071.19
2023-02-15T21:16:22.120Z,101068.63
2023-02-15T21:18:50.485Z,101067.13
2023-02-15T21:21:24.229Z,101065.53
2023-02-15T21:23:53.925Z,101063.06
2023-02-15T21:26:24.876Z,101070.69
2023-02-15T21:28:53.457Z,101062.72
2023-02-15T21:31:24.268Z,101061.22
2023-02-15T21:33:53.844Z,101053.22
2023-02-15T21:36:25.371Z,101039.31
2023-02-15T21:38:56.339Z,101036.75
2023-02-15T21:41:44.420Z,101031.88
2023-02-15T21:44:35.274Z,101029.53
2023-02-15T21:47:21.334Z,101027.84
2023-02-15T21:49:50.093Z,101014.31
2023-02-15T21:52:21.423Z,101019.94
2023-02-15T21:54:50.109Z,101013.91
2023-02-15T21:57:22.300Z,101007.75
2023-02-15T21:59:51.057Z,101004.06
2023-02-15T22:02:29.551Z,101011.84
2023-02-15T22:04:59.672Z,100989.88
2023-02-15T22:07:27.989Z,100986.03
2023-02-15T22:09:56.607Z,100984.69
2023-02-15T22:12:26.829Z,100988.75
2023-02-15T22:14:55.902Z,100975.22
2023-02-15T22:17:26.527Z,100963.84
2023-02-15T22:19:55.367Z,100968.16
2023-02-15T22:22:24.268Z,100958.66
2023-02-15T22:24:52.801Z,100955.56
2023-02-15T22:27:25.857Z,100961.84
2023-02-15T22:29:56.679Z,100942.81
2023-02-15T22:32:27.438Z,100948.25
2023-02-15T22:34:56.477Z,100938.75
2023-02-15T22:37:25.198Z,100943.09
2023-02-15T22:39:54.262Z,100943.00
2023-02-15T22:42:27.642Z,100931.16
2023-02-15T22:44:59.833Z,100937.63
2023-02-15T22:47:32.406Z,100928.78
2023-02-15T22:50:01.234Z,100938.97
2023-02-15T22:52:29.953Z,100936.41
2023-02-15T22:54:58.310Z,100933.50
2023-02-15T22:57:32.566Z,100933.78
2023-02-15T23:00:04.405Z,100936.41
2023-02-15T23:02:33.062Z,100926.00
2023-02-15T23:05:01.815Z,100925.91
2023-02-15T23:07:30.514Z,100931.25
2023-02-15T23:09:59.143Z,100930.31
2023-02-15T23:12:50.448Z,100928.72
2023-02-15T23:15:20.808Z,100925.16
2023-02-15T23:17:49.548Z,100925.44
2023-02-15T23:20:18.386Z,100911.06
2023-02-15T23:22:47.049Z,100910.50
2023-02-15T23:25:19.567Z,100904.41
2023-02-15T23:28:00.195Z,100899.97
2023-02-15T23:30:30.459Z,100894.84
2023-02-15T23:32:59.522Z,100898.19
2023-02-15T23:35:28.485Z,100893.03
2023-02-15T23:37:57.132Z,100894.53
2023-02-15T23:40:43.346Z,100883.25
2023-02-15T23:43:20.994Z,100886.72
2023-02-15T23:45:50.768Z,100885.03
2023-02-15T23:48:31.361Z,100881.47
2023-02-15T23:51:01.176Z,100889.00
2023-02-15T23:53:30.181Z,100881.84
2023-02-15T23:55:59.306Z,100880.91
2023-02-15T23:58:35.971Z,100877.13
